Latest Coastal Weather Observations for Cape Bruny AWS

IDT60701

Issued at 5:52 am EST Wednesday 3 June 2020 (issued every 10 minutes, with the page automatically refreshed every 10 minutes)

About coastal observations | Map of coastal stations | Coastal observations for TAS | Marine services | Other Formats
Station Details ID: 094198 Name: CAPE BRUNY (CAPE BRUNY) Lat: -43.49 Lon: 147.14 Height: 59.7 m
Data from the previous 72 hours. | See also: Recent months at Cape Bruny AWS
Date/Time
EST
Wind Sea
Height
m
Swell Vis
km
Cloud Weather Temp
°C
Press
hPa
Rain since
9am
mm
Dir  Spd
kts
Gust
kts
Height
m
Period
s
Dir
03/05:30am SW 27 41 - - - - - - - 8.1 1020.5 1.6
03/05:00am SW 26 37 - - - - - - - 8.2 1019.6 1.6
03/04:30am SW 26 39 - - - - - - - 7.9 1018.8 1.6
03/04:13am SW 28 45 - - - - - - - 7.3 1018.6 1.6
03/04:11am SW 29 45 - - - - - - - 7.3 1018.6 1.6
03/04:06am SW 27 45 - - - - - - - 8.8 1018.6 1.4
03/04:00am SW 25 35 - - - - - - - 9.3 1018.2 1.4
03/03:30am SW 24 35 - - - - - - - 9.1 1017.7 1.4
03/03:00am WSW 24 34 - - - - - - - 8.8 1016.9 1.4
03/02:30am SW 28 41 - - - - - - - 9.4 1016.2 1.4
03/02:00am SW 26 38 - - - - - - - 9.5 1015.3 1.4
03/01:30am SW 28 42 - - - - - - - 9.0 1014.2 1.4
03/01:00am SW 30 40 - - - - - - - 9.1 1013.5 1.4
03/12:30am SW 26 40 - - - - - - - 8.8 1012.5 1.4
03/12:00am SW 26 38 - - - - - - Recent precip. 8.5 1012.0 1.4
 
Date/Time
EST
Wind Sea
Height
m
Swell Vis
km
Cloud Weather Temp
°C
Press
hPa
Rain since
9am
mm
Dir  Spd
kts
Gust
kts
Height
m
Period
s
Dir
02/11:30pm WSW 33 43 - - - - - - - 8.3 1011.1 1.0
02/11:01pm WSW 29 40 - - - - - - - 9.6 1010.5 0.2
02/11:00pm WSW 29 38 - - - - - - - 10.5 1010.3 0.2
02/10:43pm W 24 35 - - - - - - - 10.1 1010.0 0.2
02/10:30pm W 25 31 - - - - - - - 9.8 1009.7 0.2
02/10:00pm W 25 35 - - - - - - - 9.3 1009.2 0.2
02/09:56pm W 23 34 - - - - - - - 9.0 1009.1 0.2
02/09:30pm W 23 31 - - - - - - - 9.4 1008.7 0.0
02/09:00pm W 26 34 - - - - - - - 9.4 1008.3 0.0
02/08:43pm W 20 32 - - - - - - - 9.8 1008.0 0.0
02/08:30pm W 22 32 - - - - - - - 9.4 1007.7 0.0
02/08:04pm W 28 41 - - - - - - - 8.7 1006.9 0.0
02/08:00pm W 25 41 - - - - - - - 9.1 1006.9 0.0
02/07:33pm W 22 34 - - - - - - - 10.5 1006.1 0.0
02/07:30pm W 22 31 - - - - - - - 10.4 1006.3 0.0
02/07:17pm W 22 33 - - - - - - - 10.1 1006.1 0.0
02/07:00pm W 22 30 - - - - - - - 10.2 1005.8 0.0
02/06:30pm W 20 29 - - - - - - - 10.0 1005.5 0.0
02/06:07pm W 20 30 - - - - - - - 10.9 1005.2 0.0
02/06:00pm W 22 29 - - - - - - - 11.0 1005.1 0.0
02/05:30pm W 26 32 - - - - - - - 10.9 1004.2 0.0
02/05:03pm W 26 40 - - - - - - - 11.1 1003.8 0.0
02/05:00pm W 26 33 - - - - - - - 11.2 1003.9 0.0
02/04:32pm WSW 27 38 - - - - - - - 10.3 1003.5 0.0
02/04:30pm W 26 34 - - - - - - - 10.3 1003.6 0.0
02/04:03pm WSW 29 41 - - - - - - - 10.6 1003.5 0.0
02/04:00pm WSW 25 38 - - - - - - - 11.2 1003.5 0.0
02/03:58pm WSW 23 38 - - - - - - - 11.6 1003.5 0.0
02/03:55pm WSW 19 32 - - - - - - - 12.1 1003.6 0.0
02/03:30pm W 19 26 - - - - - - - 12.9 1003.4 0.0
02/03:00pm W 29 34 - - - - - - - 13.8 1002.9 0.0
02/02:48pm W 24 36 - - - - - - - 13.9 1002.8 0.0
02/02:34pm W 19 29 - - - - - - - 14.3 1003.2 0.0
02/02:30pm W 20 29 - - - - - - - 14.5 1003.2 0.0
02/02:10pm WNW 18 28 - - - - - - - 14.6 1003.3 0.0
02/02:00pm WNW 20 29 - - - - - - - 14.5 1003.0 0.0
02/01:31pm NW 17 27 - - - - - - - 14.5 1003.6 0.0
02/01:30pm NW 16 26 - - - - - - - 14.9 1003.8 0.0
02/01:26pm NW 15 22 - - - - - - - 14.9 1004.0 0.0
02/01:00pm NW 6 11 - - - - - - - 14.7 1004.4 0.0
02/12:30pm N 9 14 - - - - - - - 12.5 1004.9 0.0
02/12:00pm NNW 10 15 - - - - - - - 12.6 1004.9 0.0
02/11:30am NW 19 25 - - - - - - - 13.2 1005.2 0.0
02/11:00am NW 22 31 - - - - - - - 14.2 1005.1 0.0
02/10:30am WNW 15 26 - - - - - - - 13.1 1005.5 0.0
02/10:29am WNW 15 26 - - - - - - - 12.9 1005.5 0.0
02/10:00am NW 14 19 - - - - - - - 12.3 1005.7 0.0
02/09:30am NW 15 24 - - - - - - - 11.9 1005.6 0.0
02/09:00am NW 13 18 - - - - - - - 11.9 1005.7 0.6
02/08:30am NW 11 17 - - - - - - - 11.7 1005.8 0.6
02/08:00am WNW 14 21 - - - - - - - 11.8 1005.3 0.6
02/07:30am WNW 25 31 - - - - - - - 11.6 1005.4 0.6
02/07:16am WNW 24 34 - - - - - - - 11.5 1005.4 0.6
02/07:00am WNW 22 32 - - - - - - - 11.4 1005.4 0.6
02/06:30am NW 14 24 - - - - - - - 10.8 1005.7 0.6
02/06:00am NW 12 18 - - - - - - - 10.4 1005.8 0.6
02/05:30am NW 16 22 - - - - - - - 10.5 1005.6 0.6
02/05:00am NNW 11 16 - - - - - - - 9.8 1005.8 0.6
02/04:30am NNW 12 16 - - - - - - - 9.6 1005.9 0.6
02/04:00am NNW 12 18 - - - - - - - 9.9 1006.0 0.6
02/03:30am NW 17 22 - - - - - - - 10.2 1005.9 0.6
02/03:00am NW 17 23 - - - - - - - 10.1 1006.2 0.6
02/02:30am NW 17 22 - - - - - - - 9.8 1006.6 0.6
02/02:00am NW 16 20 - - - - - - - 9.4 1006.6 0.6
02/01:30am NNW 11 15 - - - - - - - 8.1 1006.8 0.6
02/01:00am NNW 10 15 - - - - - - - 7.7 1006.8 0.6
02/12:30am NNW 13 19 - - - - - - - 8.1 1007.0 0.6
02/12:00am NW 13 20 - - - - - - - 8.9 1007.3 0.6
 
Date/Time
EST
Wind Sea
Height
m
Swell Vis
km
Cloud Weather Temp
°C
Press
hPa
Rain since
9am
mm
Dir  Spd
kts
Gust
kts
Height
m
Period
s
Dir
01/11:30pm NW 15 22 - - - - - - - 8.5 1007.5 0.6
01/11:00pm NW 12 17 - - - - - - - 8.2 1007.7 0.6
01/10:30pm WNW 16 22 - - - - - - - 8.4 1007.8 0.6
01/10:01pm WNW 20 30 - - - - - - - 8.5 1007.5 0.6
01/10:00pm WNW 21 30 - - - - - - - 8.5 1007.5 0.6
01/09:30pm NW 20 29 - - - - - - - 8.3 1007.1 0.6
01/09:00pm NW 20 26 - - - - - - - 7.8 1007.2 0.6
01/08:30pm WNW 22 31 - - - - - - - 7.8 1006.9 0.6
01/08:04pm WNW 19 29 - - - - - - - 7.7 1006.8 0.6
01/08:00pm WNW 21 29 - - - - - - - 7.7 1006.7 0.6
01/07:30pm W 20 30 - - - - - - - 8.3 1006.5 0.6
01/07:26pm W 17 28 - - - - - - - 8.2 1006.5 0.6
01/07:00pm W 14 19 - - - - - - - 8.3 1006.3 0.6
01/06:30pm WSW 22 27 - - - - - - - 8.0 1005.7 0.6
01/06:00pm WSW 21 27 - - - - - - Recent precip. 7.9 1005.3 0.6
01/05:30pm WSW 21 26 - - - - - - - 7.4 1004.9 0.6
01/05:00pm WSW 14 20 - - - - - - - 7.7 1004.6 0.4
01/04:30pm WSW 14 19 - - - - - - - 8.2 1004.7 0.4
01/04:00pm WSW 15 19 - - - - - - - 8.0 1004.5 0.4
01/03:30pm SW 13 19 - - - - - - - 8.3 1004.1 0.4
01/03:00pm SW 15 22 - - - - - - Recent precip. 8.4 1003.7 0.4
01/02:30pm SW 14 20 - - - - - - - 8.9 1003.2 0.4
01/02:21pm WSW 15 25 - - - - - - - 9.1 1003.1 0.4
01/02:00pm WSW 15 21 - - - - - - - 10.1 1002.7 0.0
01/01:30pm WSW 9 12 - - - - - - - 11.3 1002.2 0.0
01/01:00pm SW 11 14 - - - - - - - 12.5 1001.9 0.0
01/12:30pm SSW 7 10 - - - - - - - 13.0 1001.6 0.0
01/12:00pm NNW 7 11 - - - - - - - 12.7 1001.4 0.0
01/11:30am NNE 8 11 - - - - - - - 12.7 1001.4 0.0
01/11:00am NNE 10 13 - - - - - - - 12.1 1001.4 0.0
01/10:30am NNE 9 13 - - - - - - - 12.7 1001.4 0.0
01/10:00am NNE 10 13 - - - - - - - 11.7 1001.1 0.0
01/09:30am NE 8 11 - - - - - - - 11.9 1001.0 0.0
01/09:00am NNE 7 10 - - - - - - - 10.7 1000.9 0.0
01/08:30am NNE 8 11 - - - - - - - 9.7 1000.8 0.0
01/08:00am NNE 8 11 - - - - - - - 9.3 1000.5 0.0
01/07:30am NNE 9 11 - - - - - - - 9.2 1000.3 0.0
01/07:00am NNE 8 11 - - - - - - - 9.4 1000.1 0.0
01/06:30am NE 6 7 - - - - - - - 9.4 1000.0 0.0
01/06:00am NNE 7 8 - - - - - - - 9.6 999.9 0.0
01/05:30am NNE 6 7 - - - - - - - 9.8 999.8 0.0
01/05:00am N 6 8 - - - - - - - 10.1 999.7 0.0
01/04:30am NNE 6 8 - - - - - - - 10.0 999.6 0.0
01/04:00am NNW 9 12 - - - - - - - 10.4 999.8 0.0
01/03:30am N 9 13 - - - - - - - 10.3 999.7 0.0
01/03:00am N 8 12 - - - - - - - 10.1 999.8 0.0
01/02:30am N 10 13 - - - - - - - 10.2 1000.1 0.0
01/02:00am N 7 11 - - - - - - - 10.0 1000.1 0.0
01/01:30am N 8 13 - - - - - - - 10.0 1000.3 0.0
01/01:00am N 7 11 - - - - - - - 9.9 1000.6 0.0
01/12:30am NNE 6 11 - - - - - - - 9.5 1001.1 0.0
01/12:00am N 8 14 - - - - - - - 9.7 1001.1 0.0
 
Date/Time
EST
Wind Sea
Height
m
Swell Vis
km
Cloud Weather Temp
°C
Press
hPa
Rain since
9am
mm
Dir  Spd
kts
Gust
kts
Height
m
Period
s
Dir
31/11:30pm NNW 9 12 - - - - - - - 9.7 1001.7 0.0
31/11:00pm NNW 8 11 - - - - - - - 9.5 1001.9 0.0
31/10:30pm NNW 7 9 - - - - - - - 9.2 1002.2 0.0
31/10:00pm NNW 9 12 - - - - - - - 9.4 1002.4 0.0
31/09:30pm NNW 8 10 - - - - - - - 9.2 1002.8 0.0
31/09:00pm N 7 9 - - - - - - - 9.2 1003.1 0.0
31/08:30pm N 8 11 - - - - - - - 9.2 1003.2 0.0
31/08:00pm N 7 8 - - - - - - - 9.1 1003.5 0.0
31/07:30pm N 8 14 - - - - - - - 9.9 1003.6 0.0
31/07:00pm NW 9 13 - - - - - - - 10.1 1003.7 0.0
31/06:30pm NW 12 15 - - - - - - - 10.4 1003.5 0.0
31/06:00pm NNW 9 11 - - - - - - - 9.6 1004.0 0.0
31/05:30pm ENE 3 5 - - - - - - - 9.2 1004.0 0.0
31/05:00pm NNE 4 9 - - - - - - - 9.6 1003.8 0.0
31/04:30pm NNW 5 9 - - - - - - - 10.7 1003.8 0.0
31/04:00pm NW 9 16 - - - - - - - 11.3 1003.7 0.0
31/03:30pm NW 7 15 - - - - - - - 11.2 1003.8 0.0
31/03:00pm NW 9 13 - - - - - - - 12.0 1003.8 0.0
31/02:30pm NW 11 17 - - - - - - - 12.2 1003.4 0.0
31/02:00pm NW 16 23 - - - - - - - 12.4 1003.4 0.0
31/01:30pm NW 9 15 - - - - - - - 12.5 1003.8 0.0
31/01:00pm NW 10 16 - - - - - - - 12.4 1004.1 0.0
31/12:30pm NNW 13 19 - - - - - - - 13.4 1004.4 0.0
31/12:00pm NW 13 22 - - - - - - - 13.6 1004.5 0.0
31/11:30am NNW 12 18 - - - - - - - 13.3 1004.8 0.0
31/11:00am NW 12 19 - - - - - - - 13.3 1005.3 0.0
31/10:30am NW 13 19 - - - - - - - 12.5 1005.4 0.0
31/10:00am NW 10 17 - - - - - - - 12.5 1005.4 0.0
31/09:30am NW 12 18 - - - - - - - 12.3 1005.2 0.0
31/09:00am NW 13 18 - - - - - - - 11.4 1005.0 0.0
31/08:30am NW 19 26 - - - - - - - 11.5 1004.6 0.0
31/08:00am NW 15 19 - - - - - - - 11.0 1004.5 0.0
31/07:30am NNW 9 13 - - - - - - - 10.9 1004.5 0.0
31/07:00am WNW 14 19 - - - - - - - 11.2 1003.9 0.0
31/06:30am WNW 20 26 - - - - - - - 11.3 1003.3 0.0
31/06:00am WNW 23 29 - - - - - - - 11.6 1002.9 0.0

Other formats

Comma delimited format used in spreadsheet applications
http://www.bom.gov.au/fwo/IDT60701/IDT60701.95967.axf

JavaScript Object Notation format (JSON) in row-major order
http://www.bom.gov.au/fwo/IDT60701/IDT60701.95967.json

Data quality

Most of these data are generated automatically and are frequently updated. Quality checks on data are not normally performed. It is possible for incorrect values to appear. Refer to information at About Latest Weather Observations and please check the disclaimer before using these data.